< < Back
Terminal Aerodrome Forecast


Current Version              Previous Versions:   1  2  3  4  5  6  7  8  9  

Terminal Aerodrome Forecast

850
FTUS42 KTAE 262300
TAFABY
TAF
KABY 262320Z 2700/2724 07007KT P6SM SCT035=



Latest METAR

850
SAUS70 KWBC 271900 RRI
MTRABY
METAR KABY 271853Z VRB05KT 10SM SCT055 32/18 A3003 RMK AO2 SLP167
T03220178


USA.gov is the U.S. government's official web portal to all federal, state and local government web resources and services.